createdAt,value
2023-01-11T00:02:18.020Z,87.37
2023-01-11T00:06:17.978Z,87.22
2023-01-11T00:10:18.885Z,87.44
2023-01-11T00:14:17.951Z,87.09
2023-01-11T00:18:18.362Z,87.15
2023-01-11T00:22:19.157Z,87.11
2023-01-11T00:26:18.119Z,87.25
2023-01-11T00:30:18.255Z,86.59
2023-01-11T00:34:18.823Z,86.86
2023-01-11T00:38:27.828Z,86.73
2023-01-11T00:42:27.897Z,86.32
2023-01-11T00:46:27.922Z,86.19
2023-01-11T00:50:18.445Z,86.34
2023-01-11T00:54:18.100Z,86.32
2023-01-11T00:58:18.070Z,86.05
2023-01-11T01:02:18.086Z,86.50
2023-01-11T01:06:18.588Z,86.41
2023-01-11T01:10:18.731Z,86.49
2023-01-11T01:14:27.401Z,86.18
2023-01-11T01:18:18.148Z,86.01
2023-01-11T01:22:18.261Z,86.28
2023-01-11T01:26:18.168Z,85.81
2023-01-11T01:30:18.526Z,85.47
2023-01-11T01:34:18.121Z,85.93
2023-01-11T01:38:18.432Z,85.71
2023-01-11T01:42:20.668Z,85.75
2023-01-11T01:46:20.303Z,85.75
2023-01-11T01:50:21.113Z,85.93
2023-01-11T01:54:23.463Z,85.50
2023-01-11T01:58:22.495Z,85.36
2023-01-11T02:06:20.635Z,85.43
2023-01-11T02:10:20.175Z,85.27
2023-01-11T02:14:19.702Z,85.39
2023-01-11T02:18:19.600Z,84.91
2023-01-11T02:22:38.044Z,85.30
2023-01-11T02:26:38.108Z,85.34
2023-01-11T02:30:25.912Z,85.05
2023-01-11T02:34:28.178Z,85.18
2023-01-11T02:38:27.231Z,84.90
2023-01-11T02:42:35.624Z,85.25
2023-01-11T02:46:28.859Z,85.12
2023-01-11T02:50:28.839Z,85.17
2023-01-11T02:54:21.068Z,85.11
2023-01-11T02:58:22.206Z,85.16
2023-01-11T03:02:18.423Z,84.69
2023-01-11T03:06:21.524Z,84.67
2023-01-11T03:10:29.989Z,84.91
2023-01-11T03:14:26.779Z,84.64
2023-01-11T03:18:27.393Z,84.68
2023-01-11T03:22:27.071Z,84.72
2023-01-11T03:26:29.924Z,84.72
2023-01-11T03:30:26.449Z,84.72
2023-01-11T03:34:29.144Z,84.40
2023-01-11T03:38:22.823Z,84.68
2023-01-11T03:42:22.169Z,84.68
2023-01-11T03:46:23.051Z,84.45
2023-01-11T03:50:19.269Z,84.23
2023-01-11T03:54:22.787Z,84.26
2023-01-11T04:02:21.354Z,84.25
2023-01-11T04:06:18.954Z,84.25
2023-01-11T04:10:18.954Z,84.36
2023-01-11T04:14:18.500Z,84.30
2023-01-11T04:18:18.532Z,84.19
2023-01-11T04:22:18.668Z,83.94
2023-01-11T04:26:18.663Z,83.73
2023-01-11T04:30:18.925Z,83.90
2023-01-11T04:42:19.001Z,83.72
2023-01-11T04:46:18.643Z,83.77
2023-01-11T04:50:18.835Z,83.95
2023-01-11T04:54:18.635Z,83.91
2023-01-11T04:58:18.800Z,83.94
2023-01-11T05:02:18.767Z,83.99
2023-01-11T05:06:18.846Z,83.70
2023-01-11T05:10:20.869Z,83.35
2023-01-11T05:14:18.835Z,83.41
2023-01-11T05:18:18.742Z,83.32
2023-01-11T05:22:18.760Z,83.48
2023-01-11T05:26:22.123Z,83.27
2023-01-11T05:30:18.911Z,83.01
2023-01-11T05:34:18.774Z,83.03
2023-01-11T05:38:18.989Z,83.28
2023-01-11T05:42:18.799Z,83.26
2023-01-11T05:46:19.308Z,83.46
2023-01-11T05:50:19.005Z,83.59
2023-01-11T05:54:19.086Z,83.38
2023-01-11T05:58:18.790Z,83.36
2023-01-11T06:02:19.151Z,83.35
2023-01-11T06:06:19.769Z,83.47
2023-01-11T06:10:19.065Z,83.74
2023-01-11T06:14:18.831Z,83.56
2023-01-11T06:18:19.102Z,83.87
2023-01-11T06:22:18.886Z,83.86
2023-01-11T06:26:20.827Z,83.71
2023-01-11T06:30:19.620Z,83.83
2023-01-11T06:34:19.136Z,83.87
2023-01-11T06:38:20.621Z,83.79
2023-01-11T06:42:19.043Z,83.85
2023-01-11T06:46:19.725Z,84.04
2023-01-11T06:50:19.225Z,84.00
2023-01-11T06:54:22.035Z,84.09
2023-01-11T07:02:19.149Z,83.54
2023-01-11T07:06:19.023Z,83.22
2023-01-11T07:10:19.302Z,82.60
2023-01-11T07:14:20.060Z,82.34
2023-01-11T07:18:19.764Z,82.32
2023-01-11T07:22:21.418Z,81.93
2023-01-11T07:38:19.374Z,80.79
2023-01-11T07:42:29.098Z,80.63
2023-01-11T07:46:19.620Z,80.68
2023-01-11T07:50:19.057Z,80.95
2023-01-11T07:54:19.625Z,80.96
2023-01-11T07:58:19.137Z,80.87
2023-01-11T08:02:19.400Z,80.98
2023-01-11T08:06:19.140Z,80.94
2023-01-11T08:10:19.451Z,81.24
2023-01-11T08:14:29.113Z,81.11
2023-01-11T08:22:19.372Z,81.27
2023-01-11T08:26:19.218Z,81.16
2023-01-11T08:30:19.396Z,81.12
2023-01-11T08:34:19.197Z,81.06
2023-01-11T08:38:19.386Z,80.84
2023-01-11T08:42:19.473Z,80.55
2023-01-11T08:46:19.711Z,80.85
2023-01-11T08:50:21.447Z,80.53
2023-01-11T08:54:19.511Z,80.99
2023-01-11T08:58:21.480Z,81.03
2023-01-11T09:02:19.648Z,81.36
2023-01-11T09:06:19.513Z,81.54
2023-01-11T09:10:19.729Z,81.73
2023-01-11T09:14:19.712Z,81.84
2023-01-11T09:18:19.672Z,82.17
2023-01-11T09:22:19.333Z,82.41
2023-01-11T09:26:19.590Z,82.35
2023-01-11T09:30:21.761Z,82.45
2023-01-11T09:34:20.086Z,81.99
2023-01-11T09:38:19.408Z,81.65
2023-01-11T09:42:31.632Z,81.34
2023-01-11T09:46:19.870Z,81.05
2023-01-11T09:50:22.879Z,81.14
2023-01-11T09:54:25.751Z,81.24
2023-01-11T09:58:35.095Z,81.12
2023-01-11T10:02:32.400Z,81.07
2023-01-11T10:18:26.736Z,80.99
2023-01-11T10:18:45.546Z,80.63
2023-01-11T10:22:23.663Z,80.54
2023-01-11T10:26:26.803Z,80.59
2023-01-11T10:30:33.048Z,80.55
2023-01-11T10:34:29.999Z,80.20
2023-01-11T10:38:36.531Z,80.11
2023-01-11T10:46:25.477Z,80.23
2023-01-11T10:50:25.453Z,79.96
2023-01-11T10:54:26.635Z,79.96
2023-01-11T10:58:29.214Z,79.79
2023-01-11T11:02:34.146Z,79.49
2023-01-11T11:06:31.763Z,79.48
2023-01-11T11:10:24.584Z,79.27
2023-01-11T11:14:27.025Z,78.98
2023-01-11T11:18:19.833Z,78.53
2023-01-11T11:22:20.069Z,78.12
2023-01-11T11:26:21.903Z,78.25
2023-01-11T11:30:30.506Z,78.35
2023-01-11T11:34:21.405Z,78.04
2023-01-11T11:42:21.014Z,77.83
2023-01-11T11:46:25.184Z,77.52
2023-01-11T11:50:43.258Z,77.36
2023-01-11T11:54:25.009Z,77.15
2023-01-11T11:58:23.447Z,77.32
2023-01-11T12:02:24.681Z,77.26
2023-01-11T12:10:22.844Z,77.42
2023-01-11T12:14:24.577Z,77.47
2023-01-11T12:18:24.183Z,76.82
2023-01-11T12:22:22.071Z,76.78
2023-01-11T12:26:23.880Z,76.49
2023-01-11T12:30:24.560Z,76.70
2023-01-11T12:34:36.352Z,76.16
2023-01-11T12:38:29.199Z,76.63
2023-01-11T12:42:37.820Z,76.30
2023-01-11T12:46:27.389Z,76.01
2023-01-11T12:50:24.007Z,76.00
2023-01-11T12:54:37.652Z,75.53
2023-01-11T12:58:27.839Z,76.04
2023-01-11T13:02:36.494Z,76.02
2023-01-11T13:06:24.769Z,75.38
2023-01-11T13:10:32.228Z,75.81
2023-01-11T13:14:33.282Z,75.35
2023-01-11T13:22:27.496Z,74.43
2023-01-11T13:26:24.064Z,74.47
2023-01-11T13:30:23.412Z,74.77
2023-01-11T13:34:24.586Z,74.75
2023-01-11T13:42:24.104Z,74.45
2023-01-11T13:54:26.024Z,74.56
2023-01-11T13:58:27.948Z,74.18
2023-01-11T14:10:31.812Z,74.22
2023-01-11T14:14:32.112Z,74.22
2023-01-11T14:18:30.851Z,73.86
2023-01-11T14:26:38.432Z,73.40
2023-01-11T14:30:36.522Z,74.12
2023-01-11T14:34:40.023Z,74.47
2023-01-11T14:38:39.951Z,75.05
2023-01-11T14:42:38.491Z,75.72
2023-01-11T14:46:40.201Z,76.01
2023-01-11T14:50:31.924Z,76.62
2023-01-11T14:54:25.111Z,77.09
2023-01-11T14:58:25.668Z,77.46
2023-01-11T15:02:26.178Z,77.72
2023-01-11T15:06:21.788Z,78.35
2023-01-11T15:10:39.125Z,78.59
2023-01-11T15:14:27.806Z,79.08
2023-01-11T15:18:22.831Z,79.93
2023-01-11T15:22:27.089Z,80.23
2023-01-11T15:26:22.716Z,80.31
2023-01-11T15:30:37.999Z,80.69
2023-01-11T15:34:23.893Z,81.19
2023-01-11T15:38:22.901Z,81.04
2023-01-11T15:42:40.160Z,81.53
2023-01-11T15:46:50.167Z,81.53
2023-01-11T15:50:40.173Z,81.89
2023-01-11T15:54:40.917Z,82.67
2023-01-11T15:58:39.343Z,83.14
2023-01-11T16:02:40.201Z,82.83
2023-01-11T16:06:31.314Z,82.42
2023-01-11T16:10:40.224Z,82.09
2023-01-11T16:14:39.800Z,81.87
2023-01-11T16:18:24.362Z,81.72
2023-01-11T16:22:24.719Z,81.52
2023-01-11T16:26:21.186Z,81.45
2023-01-11T16:34:20.667Z,81.45
2023-01-11T16:38:22.674Z,81.26
2023-01-11T16:46:40.517Z,81.18
2023-01-11T16:54:25.469Z,81.28
2023-01-11T17:02:27.443Z,81.31
2023-01-11T17:06:22.315Z,81.20
2023-01-11T17:10:24.482Z,81.26
2023-01-11T17:14:39.191Z,81.21
2023-01-11T17:18:21.046Z,81.25
2023-01-11T17:22:25.052Z,81.31
2023-01-11T17:26:23.584Z,81.30
2023-01-11T17:30:23.932Z,81.26
2023-01-11T17:34:29.289Z,81.34
2023-01-11T17:38:23.236Z,81.34
2023-01-11T17:42:31.776Z,81.25
2023-01-11T17:50:23.872Z,81.33
2023-01-11T17:58:25.434Z,81.41
2023-01-11T18:02:20.776Z,81.35
2023-01-11T18:06:26.100Z,81.33
2023-01-11T18:10:23.062Z,81.35
2023-01-11T18:14:23.838Z,81.55
2023-01-11T18:18:40.683Z,82.11
2023-01-11T18:22:28.067Z,82.34
2023-01-11T18:26:25.704Z,82.24
2023-01-11T18:30:39.046Z,82.24
2023-01-11T18:34:20.798Z,82.42
2023-01-11T18:38:23.525Z,82.46
2023-01-11T18:42:27.798Z,82.59
2023-01-11T18:50:21.128Z,83.20
2023-01-11T18:54:21.009Z,83.33
2023-01-11T18:58:21.862Z,83.64
2023-01-11T19:02:24.101Z,83.63
2023-01-11T19:06:21.782Z,83.53
2023-01-11T19:10:22.474Z,83.56
2023-01-11T19:14:21.019Z,83.51
2023-01-11T19:20:37.127Z,83.41
2023-01-11T19:22:23.439Z,83.41
2023-01-11T19:26:21.020Z,83.07
2023-01-11T19:30:21.008Z,83.18
2023-01-11T19:34:21.621Z,83.33
2023-01-11T19:38:21.051Z,83.32
2023-01-11T19:42:22.847Z,83.67
2023-01-11T19:46:31.146Z,83.79
2023-01-11T19:50:21.227Z,83.84
2023-01-11T19:54:24.004Z,84.01
2023-01-11T19:58:21.426Z,83.92
2023-01-11T20:02:21.331Z,83.91
2023-01-11T20:06:21.302Z,83.85
2023-01-11T20:10:21.719Z,83.94
2023-01-11T20:14:21.393Z,83.71
2023-01-11T20:18:21.148Z,83.85
2023-01-11T20:22:22.168Z,83.85
2023-01-11T20:26:21.194Z,84.07
2023-01-11T20:34:21.519Z,84.44
2023-01-11T20:42:21.417Z,84.83
2023-01-11T20:46:21.303Z,85.00
2023-01-11T20:50:21.290Z,85.19
2023-01-11T20:54:21.648Z,85.26
2023-01-11T20:58:21.535Z,85.42
2023-01-11T21:06:21.410Z,85.68
2023-01-11T21:10:21.482Z,85.80
2023-01-11T21:18:21.528Z,85.77
2023-01-11T21:22:21.276Z,86.23
2023-01-11T21:30:22.368Z,86.21
2023-01-11T21:38:21.430Z,86.69
2023-01-11T21:50:21.388Z,87.34
2023-01-11T21:54:21.468Z,87.12
2023-01-11T21:58:21.715Z,87.21
2023-01-11T22:02:21.378Z,86.81
2023-01-11T22:06:22.025Z,86.65
2023-01-11T22:10:22.283Z,86.54
2023-01-11T22:14:22.006Z,86.54
2023-01-11T22:18:21.472Z,86.63
2023-01-11T22:22:21.732Z,86.59
2023-01-11T22:34:22.562Z,86.68
2023-01-11T22:46:23.613Z,86.44
2023-01-11T22:50:21.510Z,86.34
2023-01-11T22:54:22.035Z,86.18
2023-01-11T23:02:21.699Z,86.20
2023-01-11T23:06:23.335Z,86.37
2023-01-11T23:10:21.849Z,86.31
2023-01-11T23:14:25.669Z,86.22
2023-01-11T23:22:21.805Z,86.50
2023-01-11T23:34:21.762Z,86.83
2023-01-11T23:38:21.912Z,86.87
2023-01-11T23:46:32.523Z,87.11
2023-01-11T23:50:21.683Z,87.76
2023-01-11T23:54:24.989Z,87.38
2023-01-11T23:58:21.756Z,87.59
